Time;durP1;ratioP1;P1;durP2;ratioP2;P2;SDS_P1;SDS_P2;PMS_P1;PMS_P2;Temp;Humidity;BMP_temperature;BMP_pressure;BME280_temperature;BME280_humidity;BME280_pressure;Samples;Min_cycle;Max_cycle;Signal;HPM_P1;HPM_P2
2023/08/20 00:00:35;;;;;;;6.50;1.92;;;18.90;99.90;;;;;;5033491;28;20518;-79
2023/08/20 00:03:13;;;;;;;6.45;2.22;;;18.90;99.90;;;;;;5035125;28;20045;-79
2023/08/20 00:05:40;;;;;;;5.50;1.95;;;18.90;99.90;;;;;;5034832;28;20076;-79
2023/08/20 00:08:06;;;;;;;5.53;1.90;;;18.90;99.90;;;;;;5034845;28;20085;-79
2023/08/20 00:10:32;;;;;;;6.18;2.13;;;18.90;99.90;;;;;;5034863;28;20048;-79
2023/08/20 00:12:58;;;;;;;5.25;1.85;;;18.80;99.90;;;;;;5034381;28;20037;-79
2023/08/20 00:15:27;;;;;;;5.82;2.00;;;18.80;99.80;;;;;;5034245;28;20412;-79
2023/08/20 00:17:54;;;;;;;6.72;1.83;;;18.80;99.80;;;;;;5034878;28;20115;-79
2023/08/20 00:20:20;;;;;;;4.18;1.50;;;18.70;99.70;;;;;;5034057;28;20099;-79
2023/08/20 00:22:46;;;;;;;6.10;1.80;;;18.70;99.90;;;;;;5034625;28;20041;-79
2023/08/20 00:25:13;;;;;;;4.57;1.73;;;18.60;99.80;;;;;;5034309;28;20557;-79
2023/08/20 00:27:42;;;;;;;4.20;1.58;;;18.60;99.90;;;;;;5034445;28;20052;-79
2023/08/20 00:30:09;;;;;;;4.43;1.60;;;18.60;99.90;;;;;;5033905;28;20099;-78
2023/08/20 00:32:36;;;;;;;5.63;1.75;;;18.50;99.60;;;;;;5034527;28;20124;-79
2023/08/20 00:35:05;;;;;;;5.13;1.98;;;18.50;99.60;;;;;;5032477;28;20041;-79
2023/08/20 00:37:31;;;;;;;5.97;1.80;;;18.50;99.90;;;;;;5033949;28;20048;-79
2023/08/20 00:39:57;;;;;;;5.85;1.95;;;18.50;99.80;;;;;;5033956;28;20128;-79
2023/08/20 00:42:27;;;;;;;6.40;2.17;;;18.40;99.70;;;;;;5016699;28;20523;-79
2023/08/20 00:44:53;;;;;;;5.57;1.85;;;18.40;99.90;;;;;;5034112;28;20041;-79
2023/08/20 00:47:19;;;;;;;5.47;1.95;;;18.40;99.80;;;;;;5033835;28;20051;-79
2023/08/20 00:49:47;;;;;;;5.10;2.00;;;18.30;99.70;;;;;;5034067;28;20483;-79
2023/08/20 00:52:14;;;;;;;5.10;2.00;;;18.30;99.90;;;;;;5032875;28;20053;-79
2023/08/20 00:54:40;;;;;;;4.88;2.00;;;18.30;99.90;;;;;;5034134;28;20045;-79
2023/08/20 00:57:07;;;;;;;5.57;2.05;;;18.20;99.80;;;;;;5032334;28;20104;-79
2023/08/20 00:59:33;;;;;;;4.85;1.70;;;18.20;99.90;;;;;;5033872;28;20050;-79
2023/08/20 01:02:00;;;;;;;5.22;1.88;;;18.20;99.90;;;;;;5032086;28;20049;-78
2023/08/20 01:04:26;;;;;;;5.65;1.95;;;18.10;99.90;;;;;;5033847;28;20081;-79
2023/08/20 01:07:00;;;;;;;4.90;1.88;;;18.10;99.90;;;;;;5032991;28;20124;-79
2023/08/20 01:09:25;;;;;;;4.80;1.83;;;18.10;99.90;;;;;;5032093;28;20487;-79
2023/08/20 01:11:58;;;;;;;5.80;1.80;;;18.10;99.90;;;;;;5033431;28;20094;-79
2023/08/20 01:14:24;;;;;;;5.43;1.95;;;18.00;99.90;;;;;;5033808;28;20129;-79
2023/08/20 01:16:50;;;;;;;5.57;1.75;;;18.00;99.90;;;;;;5032456;28;20447;-80
2023/08/20 01:19:21;;;;;;;4.15;1.90;;;18.00;99.90;;;;;;5033628;28;20038;-79
2023/08/20 01:22:24;;;;;;;6.97;2.13;;;18.00;99.50;;;;;;5033015;28;20077;-79
2023/08/20 01:25:11;;;;;;;5.05;2.13;;;17.90;99.30;;;;;;5033432;28;20080;-78
2023/08/20 01:27:50;;;;;;;5.40;2.00;;;17.80;99.40;;;;;;5029573;28;20100;-79
2023/08/20 01:30:17;;;;;;;4.30;1.98;;;17.80;99.40;;;;;;5033112;28;20049;-78
2023/08/20 01:32:44;;;;;;;5.93;2.40;;;17.80;99.70;;;;;;5033245;28;20092;-79
2023/08/20 01:35:13;;;;;;;6.47;2.10;;;17.80;99.90;;;;;;5032995;28;20531;-79
2023/08/20 01:37:40;;;;;;;5.07;1.83;;;17.70;99.70;;;;;;5032636;28;20045;-79
2023/08/20 01:40:10;;;;;;;6.30;2.28;;;17.70;99.70;;;;;;5033279;28;20132;-80
2023/08/20 01:42:40;;;;;;;6.28;2.30;;;17.70;99.90;;;;;;5033150;28;20061;-79
2023/08/20 01:45:06;;;;;;;5.18;2.00;;;17.70;99.90;;;;;;5032730;28;20041;-78
2023/08/20 01:47:33;;;;;;;5.28;2.05;;;17.70;99.80;;;;;;5032727;28;20107;-79
2023/08/20 01:49:59;;;;;;;5.68;2.13;;;17.60;99.60;;;;;;5032302;28;20041;-79
2023/08/20 01:52:25;;;;;;;4.65;1.88;;;17.60;99.60;;;;;;5032902;28;20152;-79
2023/08/20 01:54:51;;;;;;;5.55;2.30;;;17.60;99.50;;;;;;5032391;28;20176;-79
2023/08/20 01:57:17;;;;;;;4.75;2.10;;;17.50;99.50;;;;;;5033079;28;20060;-79
2023/08/20 01:59:43;;;;;;;4.72;2.10;;;17.50;99.50;;;;;;5032792;28;20053;-79
2023/08/20 02:02:08;;;;;;;4.38;2.10;;;17.50;99.50;;;;;;5030789;28;20544;-79
2023/08/20 02:04:34;;;;;;;4.45;2.28;;;17.50;99.40;;;;;;5032402;28;20048;-79
2023/08/20 02:07:00;;;;;;;6.20;2.42;;;17.40;99.50;;;;;;5032687;28;20045;-79
2023/08/20 02:09:25;;;;;;;6.03;2.33;;;17.40;99.40;;;;;;5033007;28;20041;-79
2023/08/20 02:11:51;;;;;;;4.63;2.10;;;17.40;99.40;;;;;;5032531;28;20041;-79
2023/08/20 02:14:17;;;;;;;4.32;2.20;;;17.30;99.80;;;;;;5039216;28;20081;-79
2023/08/20 02:16:43;;;;;;;4.95;2.08;;;17.30;99.90;;;;;;5038758;28;20068;-79
2023/08/20 02:19:09;;;;;;;6.03;2.30;;;17.30;99.90;;;;;;5039362;28;20064;-79
2023/08/20 02:21:35;;;;;;;5.72;2.17;;;17.30;99.90;;;;;;5039401;28;20037;-79
2023/08/20 02:24:00;;;;;;;6.47;2.40;;;17.30;99.90;;;;;;5037996;28;20388;-80
2023/08/20 02:26:26;;;;;;;6.72;2.50;;;17.30;99.90;;;;;;5039152;28;20047;-79
2023/08/20 02:28:52;;;;;;;5.82;2.38;;;17.30;99.90;;;;;;5038801;28;20045;-79
2023/08/20 02:31:17;;;;;;;5.47;2.38;;;17.30;99.90;;;;;;5037820;28;20092;-79
2023/08/20 02:33:43;;;;;;;6.43;2.60;;;17.20;99.90;;;;;;5021460;28;20124;-79
2023/08/20 02:36:09;;;;;;;8.23;2.70;;;17.20;99.90;;;;;;5038546;28;20087;-79
2023/08/20 02:38:35;;;;;;;5.45;2.38;;;17.20;99.90;;;;;;5039148;28;20057;-80
2023/08/20 02:41:02;;;;;;;4.47;2.22;;;17.20;99.90;;;;;;5039280;28;20045;-79
2023/08/20 02:43:28;;;;;;;5.30;2.30;;;17.20;99.90;;;;;;5038580;28;20106;-79
2023/08/20 02:45:54;;;;;;;6.05;2.65;;;17.20;99.90;;;;;;5038543;28;20050;-79
2023/08/20 02:48:20;;;;;;;6.47;2.60;;;17.10;99.90;;;;;;5038737;28;20045;-79
2023/08/20 02:50:45;;;;;;;4.55;2.20;;;17.10;99.90;;;;;;5039152;28;20049;-79
2023/08/20 02:53:11;;;;;;;5.03;2.35;;;17.10;99.90;;;;;;5038744;28;20038;-79
2023/08/20 02:55:37;;;;;;;5.95;2.38;;;17.10;99.90;;;;;;5038842;28;20502;-79
2023/08/20 02:58:09;;;;;;;9.02;2.55;;;17.10;99.90;;;;;;5037625;28;20080;-79
2023/08/20 03:00:36;;;;;;;7.00;2.90;;;17.10;99.90;;;;;;5036616;28;20062;-79
2023/08/20 03:03:05;;;;;;;7.35;2.35;;;17.10;99.90;;;;;;5038949;28;20041;-79
2023/08/20 03:05:31;;;;;;;5.75;2.60;;;17.10;99.90;;;;;;5038033;28;20504;-79
2023/08/20 03:07:57;;;;;;;6.18;2.50;;;17.00;99.90;;;;;;5039202;28;20041;-79
2023/08/20 03:10:22;;;;;;;7.95;2.72;;;17.00;99.90;;;;;;5038229;28;20176;-79
2023/08/20 03:12:48;;;;;;;6.30;2.85;;;17.00;99.90;;;;;;5039301;28;20038;-79
2023/08/20 03:15:14;;;;;;;6.10;3.03;;;17.00;99.90;;;;;;5036917;28;20053;-79
2023/08/20 03:17:39;;;;;;;6.00;2.67;;;17.00;99.90;;;;;;5037845;28;20140;-79
2023/08/20 03:20:09;;;;;;;6.38;2.60;;;17.00;99.90;;;;;;5038747;28;20103;-79
2023/08/20 03:22:37;;;;;;;5.75;2.65;;;16.90;99.90;;;;;;5038564;28;20083;-79
2023/08/20 03:25:03;;;;;;;6.38;2.40;;;16.90;99.90;;;;;;5034546;28;20045;-79
2023/08/20 03:27:29;;;;;;;5.82;2.67;;;16.90;99.90;;;;;;5035075;28;20053;-79
2023/08/20 03:29:55;;;;;;;6.38;2.65;;;16.80;99.90;;;;;;5034336;28;20388;-78
2023/08/20 03:32:20;;;;;;;4.30;2.63;;;16.80;99.90;;;;;;5033283;28;20049;-78
2023/08/20 03:34:46;;;;;;;5.53;2.60;;;16.80;99.90;;;;;;5034910;28;20041;-79
2023/08/20 03:37:12;;;;;;;7.07;2.65;;;16.80;99.90;;;;;;5035535;28;20061;-79
2023/08/20 03:39:38;;;;;;;5.43;2.55;;;16.70;99.90;;;;;;5034973;28;20137;-79
2023/08/20 03:42:04;;;;;;;5.30;2.30;;;16.70;99.90;;;;;;5035049;28;20080;-79
2023/08/20 03:44:31;;;;;;;5.40;2.53;;;16.70;99.90;;;;;;5035335;28;20083;-79
2023/08/20 03:46:56;;;;;;;5.13;2.50;;;16.70;99.90;;;;;;5034376;28;20045;-79
2023/08/20 03:49:22;;;;;;;5.45;2.53;;;16.60;99.90;;;;;;5034963;28;20055;-79
2023/08/20 03:51:51;;;;;;;6.43;2.63;;;16.60;99.90;;;;;;5035348;28;20071;-79
2023/08/20 03:54:16;;;;;;;5.40;2.80;;;16.60;99.90;;;;;;5035023;28;20052;-79
2023/08/20 03:56:45;;;;;;;5.78;2.85;;;16.60;99.90;;;;;;5035205;28;20120;-79
2023/08/20 03:59:11;;;;;;;5.97;2.65;;;16.60;99.90;;;;;;5035399;28;20144;-79
2023/08/20 04:01:37;;;;;;;4.63;2.60;;;16.50;99.90;;;;;;5031646;28;20124;-79
2023/08/20 04:04:04;;;;;;;5.45;2.40;;;16.50;99.90;;;;;;5034164;28;20399;-79
2023/08/20 04:06:29;;;;;;;5.43;2.60;;;16.50;99.90;;;;;;5032775;28;20502;-79
2023/08/20 04:08:55;;;;;;;5.20;2.53;;;16.50;99.90;;;;;;5034325;28;20041;-79
2023/08/20 04:11:21;;;;;;;5.55;2.47;;;16.40;99.90;;;;;;5034998;28;20387;-79
2023/08/20 04:13:46;;;;;;;4.70;2.63;;;16.40;99.90;;;;;;5033473;28;20049;-79
2023/08/20 04:16:13;;;;;;;4.93;2.65;;;16.40;99.90;;;;;;5034755;28;20081;-79
2023/08/20 04:18:39;;;;;;;5.47;2.40;;;16.30;99.90;;;;;;5034413;28;20048;-79
2023/08/20 04:21:05;;;;;;;5.60;2.50;;;16.40;99.90;;;;;;5034564;28;20049;-79
2023/08/20 04:23:31;;;;;;;5.05;2.70;;;16.30;99.90;;;;;;5033707;28;20029;-79
2023/08/20 04:25:56;;;;;;;6.18;2.90;;;16.30;99.90;;;;;;5033225;28;20138;-79
2023/08/20 04:28:22;;;;;;;5.05;2.67;;;16.30;99.90;;;;;;5033565;28;20052;-79
2023/08/20 04:30:49;;;;;;;7.10;2.75;;;16.30;99.90;;;;;;5034164;28;20138;-79
2023/08/20 04:33:14;;;;;;;5.82;2.80;;;16.30;99.90;;;;;;5034456;28;20045;-79
2023/08/20 04:35:40;;;;;;;5.68;2.45;;;16.30;99.90;;;;;;5032994;28;20053;-79
2023/08/20 04:38:05;;;;;;;5.53;2.58;;;16.20;99.90;;;;;;5033672;28;20046;-79
2023/08/20 04:40:31;;;;;;;5.47;2.67;;;16.20;99.90;;;;;;5033851;28;20033;-79
2023/08/20 04:42:57;;;;;;;7.18;2.72;;;16.20;99.90;;;;;;5033298;28;20042;-79
2023/08/20 04:45:22;;;;;;;4.95;2.70;;;16.10;99.90;;;;;;5033548;28;20448;-79
2023/08/20 04:47:48;;;;;;;5.38;2.67;;;16.20;99.90;;;;;;5033674;28;20048;-79
2023/08/20 04:50:14;;;;;;;5.28;2.65;;;16.10;99.90;;;;;;5033338;28;20484;-79
2023/08/20 04:52:40;;;;;;;5.35;2.60;;;16.10;99.90;;;;;;5032413;28;20108;-79
2023/08/20 04:55:07;;;;;;;5.50;2.67;;;16.20;99.90;;;;;;5033602;28;20056;-79
2023/08/20 04:57:33;;;;;;;6.05;2.45;;;16.20;99.90;;;;;;5033657;28;20049;-80
2023/08/20 04:59:58;;;;;;;6.38;2.70;;;16.20;99.90;;;;;;5033603;28;20046;-79
2023/08/20 05:02:24;;;;;;;6.10;2.63;;;16.10;99.90;;;;;;5032772;28;20041;-79
2023/08/20 05:04:50;;;;;;;5.68;2.70;;;16.20;99.90;;;;;;5033251;28;20053;-79
2023/08/20 05:07:16;;;;;;;5.40;2.50;;;16.10;99.90;;;;;;5033430;28;20057;-79
2023/08/20 05:09:41;;;;;;;5.80;2.75;;;16.10;99.90;;;;;;5033818;28;20132;-79
2023/08/20 05:12:07;;;;;;;6.65;2.97;;;16.10;99.90;;;;;;5033719;28;20057;-79
2023/08/20 05:14:33;;;;;;;4.63;2.60;;;16.10;99.90;;;;;;5034069;28;20124;-79
2023/08/20 05:16:59;;;;;;;4.82;2.40;;;16.10;99.90;;;;;;5032670;28;20568;-79
2023/08/20 05:19:24;;;;;;;5.78;2.70;;;16.10;99.90;;;;;;5033670;28;20128;-79
2023/08/20 05:21:50;;;;;;;4.43;2.65;;;16.10;99.90;;;;;;5033481;28;20045;-79
2023/08/20 05:24:16;;;;;;;4.50;2.47;;;16.10;99.90;;;;;;5032352;28;20132;-79
2023/08/20 05:26:41;;;;;;;5.38;2.45;;;16.10;99.90;;;;;;5033445;28;20034;-79
2023/08/20 05:29:07;;;;;;;4.15;2.28;;;16.10;99.90;;;;;;5033611;28;20100;-79
2023/08/20 05:31:33;;;;;;;6.28;2.65;;;16.10;99.90;;;;;;5033488;28;20502;-79
2023/08/20 05:33:58;;;;;;;7.10;2.60;;;16.10;99.90;;;;;;5032982;28;20033;-79
2023/08/20 05:36:24;;;;;;;4.78;2.60;;;16.10;99.90;;;;;;5033373;28;20048;-79
2023/08/20 05:38:50;;;;;;;5.03;2.72;;;16.10;99.90;;;;;;5032393;28;20041;-79
2023/08/20 05:41:15;;;;;;;5.20;2.67;;;16.10;99.90;;;;;;5035719;28;20529;-79
2023/08/20 05:43:44;;;;;;;5.82;3.10;;;16.10;99.90;;;;;;5033322;28;20084;-79
2023/08/20 05:46:10;;;;;;;5.80;2.60;;;16.10;99.90;;;;;;5032247;28;20060;-79
2023/08/20 05:48:36;;;;;;;10.68;4.50;;;16.10;99.90;;;;;;5031302;28;20049;-78
2023/08/20 05:51:01;;;;;;;7.97;2.83;;;16.10;99.90;;;;;;5030582;28;20399;-79
2023/08/20 05:53:27;;;;;;;8.57;3.83;;;16.10;99.90;;;;;;5030093;28;20037;-77
2023/08/20 05:55:53;;;;;;;8.68;3.53;;;16.10;99.90;;;;;;5030839;28;20041;-80
2023/08/20 05:58:18;;;;;;;12.27;5.10;;;16.10;99.90;;;;;;5031937;28;20038;-79
2023/08/20 06:00:44;;;;;;;10.15;4.40;;;16.10;99.90;;;;;;5031659;28;20050;-79
2023/08/20 06:03:10;;;;;;;14.77;5.93;;;16.20;99.90;;;;;;5030771;28;20495;-79
2023/08/20 06:05:35;;;;;;;8.73;4.35;;;16.20;99.90;;;;;;5031657;28;20521;-79
2023/08/20 06:08:01;;;;;;;13.68;6.05;;;16.20;99.90;;;;;;5031305;28;20411;-79
2023/08/20 06:10:26;;;;;;;10.40;4.20;;;16.20;99.90;;;;;;5031537;28;20056;-78
2023/08/20 06:12:52;;;;;;;12.23;4.40;;;16.30;99.90;;;;;;5031494;28;20095;-79
2023/08/20 06:15:18;;;;;;;11.77;4.57;;;16.30;99.90;;;;;;5030260;28;20507;-79
2023/08/20 06:17:44;;;;;;;16.20;5.80;;;16.40;99.90;;;;;;5030739;28;20534;-79
2023/08/20 06:20:11;;;;;;;12.77;4.78;;;16.40;99.90;;;;;;5031149;28;20045;-79
2023/08/20 06:22:37;;;;;;;15.98;6.05;;;16.40;99.90;;;;;;5031253;28;20124;-77
2023/08/20 06:25:04;;;;;;;18.50;6.82;;;16.50;99.90;;;;;;5030506;28;20048;-78
2023/08/20 06:27:30;;;;;;;11.40;5.28;;;16.50;99.90;;;;;;5031488;28;20045;-78
2023/08/20 06:29:56;;;;;;;14.20;5.40;;;16.60;99.90;;;;;;5031138;28;20096;-79
2023/08/20 06:32:21;;;;;;;14.23;5.07;;;16.70;99.90;;;;;;5046833;28;20395;-79
2023/08/20 06:34:47;;;;;;;15.57;5.93;;;16.70;99.90;;;;;;5031488;28;20045;-79
2023/08/20 06:37:12;;;;;;;15.82;5.50;;;16.70;99.90;;;;;;5031706;28;20382;-79
2023/08/20 06:39:38;;;;;;;14.07;5.93;;;16.80;99.90;;;;;;5030338;28;20044;-78
2023/08/20 06:42:04;;;;;;;11.20;4.10;;;16.90;99.90;;;;;;5031085;28;20100;-79
2023/08/20 06:44:30;;;;;;;14.73;4.90;;;16.90;99.90;;;;;;5030560;28;20037;-79
2023/08/20 06:46:55;;;;;;;12.98;5.18;;;17.00;99.90;;;;;;5031482;28;20046;-79
2023/08/20 06:49:21;;;;;;;11.48;5.45;;;17.00;99.90;;;;;;5031166;28;20041;-79
2023/08/20 06:51:46;;;;;;;11.45;5.60;;;17.10;99.90;;;;;;5031002;28;20044;-79
2023/08/20 06:54:12;;;;;;;14.30;5.50;;;17.20;99.90;;;;;;5030605;28;20121;-79
2023/08/20 06:56:37;;;;;;;13.43;4.80;;;17.30;99.90;;;;;;5032063;28;20045;-79
2023/08/20 06:59:03;;;;;;;13.27;4.65;;;17.30;99.90;;;;;;5031040;28;20057;-80
2023/08/20 07:01:29;;;;;;;14.57;5.10;;;17.40;99.90;;;;;;5035848;28;20171;-79
2023/08/20 07:03:55;;;;;;;13.52;4.60;;;17.50;99.90;;;;;;5035851;28;20037;-79
2023/08/20 07:06:20;;;;;;;18.38;5.50;;;17.60;99.90;;;;;;5034132;28;20053;-80
2023/08/20 07:08:46;;;;;;;17.33;4.70;;;17.70;99.90;;;;;;5035101;28;20053;-79
2023/08/20 07:11:12;;;;;;;15.82;5.18;;;17.80;99.90;;;;;;5034182;28;20484;-79
2023/08/20 07:13:37;;;;;;;13.98;4.25;;;17.90;99.90;;;;;;5036013;28;20480;-79
2023/08/20 07:16:03;;;;;;;15.00;4.00;;;18.00;99.90;;;;;;5034874;28;20045;-79
2023/08/20 07:18:29;;;;;;;11.07;3.70;;;18.10;99.90;;;;;;5035341;28;20045;-79
2023/08/20 07:20:55;;;;;;;12.45;4.15;;;18.10;99.90;;;;;;5035302;28;20136;-81
2023/08/20 07:23:22;;;;;;;13.80;4.20;;;18.20;99.90;;;;;;5035935;28;20045;-80
2023/08/20 07:25:52;;;;;;;13.80;4.28;;;18.30;99.90;;;;;;5035073;28;20078;-79
2023/08/20 07:29:03;;;;;;;13.88;4.00;;;18.40;99.90;;;;;;5035490;28;20128;-79
2023/08/20 07:31:04;;;;;;;19.90;3.90;;;18.50;99.90;;;;;;5034346;28;20561;-79
2023/08/20 07:33:29;;;;;;;14.48;4.25;;;18.60;99.90;;;;;;5031590;28;20045;-79
2023/08/20 07:35:55;;;;;;;19.25;4.05;;;18.70;99.90;;;;;;5034897;28;20054;-79
2023/08/20 07:38:20;;;;;;;15.07;3.20;;;18.80;99.90;;;;;;5035099;28;20064;-79
2023/08/20 07:40:46;;;;;;;14.70;3.22;;;18.90;99.90;;;;;;5035397;28;20494;-79
2023/08/20 07:43:11;;;;;;;12.00;3.22;;;19.00;99.90;;;;;;5035122;28;20073;-79
2023/08/20 07:45:37;;;;;;;13.30;3.22;;;19.10;99.90;;;;;;5034569;28;20037;-80
2023/08/20 07:48:03;;;;;;;11.88;3.05;;;19.20;99.90;;;;;;5033500;28;20484;-79
2023/08/20 07:50:29;;;;;;;15.82;3.15;;;19.30;99.90;;;;;;5033582;28;20511;-79
2023/08/20 07:52:54;;;;;;;13.00;3.13;;;19.40;99.90;;;;;;5032903;28;20041;-80
2023/08/20 07:55:20;;;;;;;14.82;3.08;;;19.50;99.90;;;;;;5034304;28;20049;-79
2023/08/20 07:57:45;;;;;;;13.35;2.63;;;19.60;99.90;;;;;;5034333;28;20041;-79
2023/08/20 08:00:13;;;;;;;12.20;2.45;;;19.60;99.90;;;;;;5033455;28;20038;-79
2023/08/20 08:02:39;;;;;;;11.38;2.88;;;19.70;99.90;;;;;;5034037;28;20048;-79
2023/08/20 08:05:05;;;;;;;10.95;2.40;;;19.80;99.90;;;;;;5035103;28;20415;-79
2023/08/20 08:07:31;;;;;;;12.35;2.88;;;19.90;99.90;;;;;;5034615;28;20060;-79
2023/08/20 08:09:56;;;;;;;17.23;3.00;;;20.00;99.90;;;;;;5033890;28;20045;-80
2023/08/20 08:12:22;;;;;;;13.35;2.70;;;20.10;99.90;;;;;;5032962;28;20043;-79
2023/08/20 08:14:47;;;;;;;11.57;2.40;;;20.20;99.90;;;;;;5034755;28;20041;-79
2023/08/20 08:17:13;;;;;;;12.13;2.35;;;20.30;99.90;;;;;;5034106;28;20063;-80
2023/08/20 08:19:39;;;;;;;15.88;2.60;;;20.40;99.90;;;;;;5034232;28;20049;-80
2023/08/20 08:22:04;;;;;;;12.85;2.40;;;20.50;99.90;;;;;;5034430;28;20054;-80
2023/08/20 08:24:30;;;;;;;10.43;2.30;;;20.60;99.90;;;;;;5033231;28;20049;-80
2023/08/20 08:26:56;;;;;;;12.77;2.40;;;20.70;99.90;;;;;;5034675;28;20061;-81
2023/08/20 08:29:21;;;;;;;13.15;2.80;;;20.80;99.90;;;;;;5032168;28;20068;-81
2023/08/20 08:31:47;;;;;;;10.05;1.92;;;20.90;99.90;;;;;;5034422;28;20694;-81
2023/08/20 08:34:14;;;;;;;13.02;2.15;;;21.00;99.90;;;;;;5034431;28;20510;-81
2023/08/20 08:36:39;;;;;;;8.73;2.10;;;21.10;99.90;;;;;;5033876;28;20061;-81
2023/08/20 08:39:06;;;;;;;10.57;2.00;;;21.10;99.70;;;;;;5034555;28;20063;-81
2023/08/20 08:41:38;;;;;;;12.88;2.47;;;21.20;99.50;;;;;;5034411;28;20049;-81
2023/08/20 08:44:05;;;;;;;12.80;2.17;;;21.30;99.20;;;;;;5048617;28;20045;-81
2023/08/20 08:46:31;;;;;;;8.45;1.92;;;21.40;99.30;;;;;;5034761;28;20071;-81
2023/08/20 08:48:58;;;;;;;11.52;2.08;;;21.40;99.20;;;;;;5034186;28;20049;-81
2023/08/20 08:51:25;;;;;;;9.40;2.03;;;21.50;98.90;;;;;;5034867;28;20049;-81
2023/08/20 08:53:51;;;;;;;9.73;2.25;;;21.60;98.80;;;;;;5033737;28;20057;-81
2023/08/20 08:56:17;;;;;;;10.48;2.13;;;21.70;98.90;;;;;;5034520;28;20037;-81
2023/08/20 12:48:01;;;;;;;6.35;1.35;;;25.70;90.30;;;;;;5097312;27;20459;-82
2023/08/20 12:50:27;;;;;;;12.27;1.90;;;25.60;91.80;;;;;;5097584;28;20052;-80
2023/08/20 12:52:53;;;;;;;9.68;1.83;;;25.70;91.00;;;;;;5092742;28;20048;-81
2023/08/20 12:55:18;;;;;;;11.73;2.05;;;25.70;90.40;;;;;;5091080;28;20111;-80
2023/08/20 12:57:55;;;;;;;9.68;1.70;;;25.70;90.70;;;;;;5087794;28;20441;-79
2023/08/20 13:00:22;;;;;;;11.77;2.03;;;25.80;89.70;;;;;;5090172;28;20049;-80
2023/08/20 13:02:48;;;;;;;9.88;1.70;;;25.90;91.00;;;;;;5090358;28;20127;-80
2023/08/20 13:05:16;;;;;;;10.48;1.75;;;26.00;90.30;;;;;;5091699;28;20052;-80
2023/08/20 13:07:45;;;;;;;13.13;1.90;;;26.00;91.20;;;;;;5084722;28;20036;-80
2023/08/20 13:10:14;;;;;;;8.73;1.77;;;26.20;91.90;;;;;;5090637;28;20049;-81
2023/08/20 13:12:43;;;;;;;8.70;1.80;;;26.30;91.50;;;;;;5088864;28;20106;-81
2023/08/20 13:15:13;;;;;;;10.32;2.10;;;26.40;89.20;;;;;;5090088;28;20088;-80
2023/08/20 13:17:46;;;;;;;8.57;2.08;;;26.40;88.70;;;;;;5092226;28;20094;-81
2023/08/20 13:20:11;;;;;;;8.63;1.77;;;26.40;85.30;;;;;;5091116;28;20044;-81
2023/08/20 13:22:37;;;;;;;9.70;1.75;;;26.40;87.10;;;;;;5089316;28;20048;-81
2023/08/20 13:25:04;;;;;;;9.48;1.77;;;26.40;86.00;;;;;;5090167;28;20051;-80
2023/08/20 13:27:30;;;;;;;6.80;1.45;;;26.50;89.00;;;;;;5089406;28;20045;-80
2023/08/20 13:29:56;;;;;;;9.05;1.60;;;26.60;88.70;;;;;;5089718;28;20048;-80
2023/08/20 13:32:22;;;;;;;7.85;1.30;;;26.60;90.60;;;;;;5089700;28;20051;-81
2023/08/20 13:34:47;;;;;;;5.35;1.52;;;26.70;90.70;;;;;;5090004;28;20032;-81
2023/08/20 13:37:13;;;;;;;6.22;1.58;;;26.80;90.30;;;;;;5089293;28;20042;-81
2023/08/20 13:39:39;;;;;;;7.45;1.40;;;26.80;86.90;;;;;;5089273;28;20177;-81
2023/08/20 13:42:04;;;;;;;6.38;1.63;;;26.80;83.80;;;;;;5088124;28;20169;-81
2023/08/20 13:44:30;;;;;;;5.57;1.48;;;26.80;87.70;;;;;;5089621;28;20098;-81
2023/08/20 13:46:56;;;;;;;6.25;1.42;;;26.90;90.40;;;;;;5088528;28;20524;-80
2023/08/20 13:49:21;;;;;;;5.85;1.17;;;26.90;88.90;;;;;;5088123;28;20051;-81
2023/08/20 13:51:47;;;;;;;6.13;1.50;;;27.00;90.50;;;;;;5089844;28;20433;-81
2023/08/20 13:54:13;;;;;;;5.63;1.13;;;27.00;88.90;;;;;;5089699;28;20197;-81
2023/08/20 13:56:38;;;;;;;5.63;1.25;;;27.00;88.30;;;;;;5089611;28;20062;-81
2023/08/20 13:59:04;;;;;;;6.10;1.00;;;27.10;86.10;;;;;;5077910;28;20490;-81
2023/08/20 14:01:29;;;;;;;6.55;1.45;;;27.10;85.90;;;;;;5074755;28;20047;-81
2023/08/20 14:03:55;;;;;;;5.47;1.17;;;27.10;88.10;;;;;;5076069;28;20048;-81
2023/08/20 14:06:21;;;;;;;7.15;1.63;;;27.10;86.80;;;;;;5076037;28;20386;-81
2023/08/20 14:08:46;;;;;;;4.55;1.17;;;27.10;82.20;;;;;;5075784;28;20041;-81
2023/08/20 14:11:12;;;;;;;5.63;1.30;;;27.10;81.80;;;;;;5075685;28;20051;-81
2023/08/20 14:13:38;;;;;;;6.28;1.23;;;27.10;81.00;;;;;;5075665;28;20048;-81
2023/08/20 14:16:03;;;;;;;7.63;1.52;;;27.20;84.60;;;;;;5075529;28;20086;-81
2023/08/20 14:18:29;;;;;;;4.97;1.10;;;27.20;79.10;;;;;;5075920;28;20173;-81
2023/08/20 14:20:55;;;;;;;4.03;0.98;;;27.20;84.20;;;;;;5074922;28;20127;-81
2023/08/20 14:23:20;;;;;;;4.57;1.30;;;27.20;79.80;;;;;;5075756;28;20123;-81
2023/08/20 14:25:46;;;;;;;4.68;1.13;;;27.20;85.50;;;;;;5075447;28;20055;-81
2023/08/20 14:28:12;;;;;;;4.90;1.15;;;27.20;83.60;;;;;;5075570;28;20060;-81
2023/08/20 14:30:38;;;;;;;4.05;1.00;;;27.30;88.40;;;;;;5076234;28;20036;-81
2023/08/20 14:33:05;;;;;;;3.47;0.80;;;27.30;88.00;;;;;;5075781;28;20080;-80
2023/08/20 14:35:31;;;;;;;5.68;0.95;;;27.40;83.30;;;;;;5075594;28;20051;-81
2023/08/20 14:37:57;;;;;;;3.80;0.93;;;27.40;80.50;;;;;;5074295;28;20041;-81
2023/08/20 14:40:23;;;;;;;4.03;0.82;;;27.40;86.90;;;;;;5075300;28;20172;-80
2023/08/20 14:42:49;;;;;;;4.07;0.70;;;27.40;83.80;;;;;;5075240;28;20041;-81
2023/08/20 14:45:15;;;;;;;3.35;0.93;;;27.40;81.60;;;;;;5074917;28;20124;-80
2023/08/20 14:47:41;;;;;;;3.17;0.90;;;27.40;85.60;;;;;;5075283;28;20398;-80
2023/08/20 14:50:07;;;;;;;5.05;0.90;;;27.40;86.30;;;;;;5075337;28;20075;-81
2023/08/20 14:52:33;;;;;;;3.78;0.85;;;27.50;82.10;;;;;;5075253;28;20464;-81
2023/08/20 14:54:58;;;;;;;4.43;1.05;;;27.50;82.70;;;;;;5075149;28;20048;-80
2023/08/20 14:57:24;;;;;;;6.18;1.15;;;27.50;87.80;;;;;;5074938;28;20128;-81
2023/08/20 14:59:51;;;;;;;9.13;1.27;;;27.60;80.50;;;;;;5074665;28;20121;-80
2023/08/20 15:02:17;;;;;;;4.97;1.10;;;27.60;79.50;;;;;;5075198;28;20052;-80
2023/08/20 15:04:43;;;;;;;4.97;1.23;;;27.60;83.70;;;;;;5093539;28;20063;-80
2023/08/20 15:07:09;;;;;;;4.82;1.00;;;27.60;84.00;;;;;;5095038;28;20379;-81
2023/08/20 15:09:36;;;;;;;3.55;0.93;;;27.70;85.70;;;;;;5094055;28;20040;-80
2023/08/20 15:12:02;;;;;;;4.30;1.00;;;27.70;88.10;;;;;;5086791;28;20137;-80
2023/08/20 15:14:31;;;;;;;5.13;1.08;;;27.70;89.40;;;;;;5058544;28;20045;-80
2023/08/20 15:16:56;;;;;;;5.72;1.10;;;27.70;86.80;;;;;;5063185;28;20033;-81
2023/08/20 15:19:22;;;;;;;7.32;1.17;;;27.70;81.70;;;;;;5066288;28;20506;-81
2023/08/20 15:21:48;;;;;;;9.32;1.45;;;27.70;78.20;;;;;;5066280;28;20048;-81
2023/08/20 15:24:13;;;;;;;4.18;1.00;;;27.70;80.60;;;;;;5058659;28;20047;-80
2023/08/20 15:26:39;;;;;;;3.67;0.90;;;27.70;87.00;;;;;;5067215;28;20036;-81
2023/08/20 15:29:05;;;;;;;5.05;1.30;;;27.80;88.80;;;;;;5057467;28;20052;-81
2023/08/20 15:31:31;;;;;;;5.18;1.20;;;27.90;90.60;;;;;;5062491;28;20145;-81
2023/08/20 15:33:57;;;;;;;5.10;1.27;;;27.90;87.70;;;;;;5063888;28;20090;-80
2023/08/20 15:36:22;;;;;;;6.22;1.48;;;27.90;88.40;;;;;;5071434;28;20041;-80
2023/08/20 15:38:51;;;;;;;5.75;1.33;;;27.90;84.80;;;;;;5062245;28;20040;-81
2023/08/20 15:41:20;;;;;;;4.70;1.17;;;28.00;86.80;;;;;;5070543;28;20094;-80
2023/08/20 15:43:45;;;;;;;6.22;1.30;;;27.90;91.00;;;;;;5075256;28;20089;-80
2023/08/20 15:46:11;;;;;;;3.83;1.13;;;27.90;85.70;;;;;;5069983;28;20045;-80
2023/08/20 15:48:37;;;;;;;3.95;0.95;;;27.90;90.10;;;;;;5054964;28;20079;-80
2023/08/20 15:51:06;;;;;;;4.60;1.20;;;27.80;90.50;;;;;;5062077;28;20127;-81
2023/08/20 15:53:32;;;;;;;5.18;1.40;;;27.80;87.50;;;;;;5072219;28;20087;-81
2023/08/20 15:55:58;;;;;;;5.80;1.25;;;27.80;91.10;;;;;;5065365;28;20048;-81
2023/08/20 15:58:23;;;;;;;4.45;0.98;;;27.90;92.40;;;;;;5073201;28;20040;-81
2023/08/20 16:00:49;;;;;;;5.45;1.20;;;27.90;93.90;;;;;;5072925;28;20074;-81
2023/08/20 16:03:14;;;;;;;5.25;1.30;;;28.00;90.30;;;;;;5072630;28;20485;-81
2023/08/20 16:05:41;;;;;;;5.07;1.30;;;28.00;90.30;;;;;;5073117;28;20525;-81
2023/08/20 16:08:07;;;;;;;5.72;1.33;;;28.00;86.80;;;;;;5072987;28;20582;-81
2023/08/20 16:10:32;;;;;;;3.20;0.90;;;28.00;89.50;;;;;;5072532;28;20131;-81
2023/08/20 16:12:58;;;;;;;5.30;1.20;;;28.10;93.40;;;;;;5073564;28;20044;-81
2023/08/20 16:15:24;;;;;;;6.05;1.35;;;28.10;94.50;;;;;;5074472;28;20635;-81
2023/08/20 16:17:49;;;;;;;6.15;1.20;;;28.10;93.70;;;;;;5073323;28;20080;-81
2023/08/20 16:20:15;;;;;;;8.10;1.70;;;28.10;91.60;;;;;;5073494;28;20048;-81
2023/08/20 16:22:41;;;;;;;5.55;1.17;;;28.00;88.80;;;;;;5086082;28;20040;-81
2023/08/20 16:25:07;;;;;;;4.47;1.10;;;28.00;92.70;;;;;;5092570;28;20091;-81
2023/08/20 16:27:32;;;;;;;6.22;1.63;;;28.00;93.50;;;;;;5093564;28;20080;-81
2023/08/20 16:29:58;;;;;;;7.07;1.30;;;28.00;93.00;;;;;;5093559;28;20087;-80